createdAt,value
2023-05-04T00:00:22.700Z,4.3
2023-05-04T00:01:24.644Z,4.3
2023-05-04T00:02:26.722Z,4.3
2023-05-04T00:03:28.824Z,4.3
2023-05-04T00:04:30.714Z,4.3
2023-05-04T00:05:32.791Z,4.3
2023-05-04T00:06:34.635Z,4.3
2023-05-04T00:07:36.647Z,4.3
2023-05-04T00:08:38.627Z,4.2
2023-05-04T00:09:40.648Z,4.2
2023-05-04T00:10:42.727Z,4.2
2023-05-04T00:11:44.704Z,4.1
2023-05-04T00:12:46.746Z,4.1
2023-05-04T00:13:48.654Z,4.1
2023-05-04T00:14:51.659Z,4.1
2023-05-04T00:15:53.709Z,4.1
2023-05-04T00:16:55.716Z,4.1
2023-05-04T00:17:57.688Z,4.1
2023-05-04T00:18:59.636Z,4.1
2023-05-04T00:20:01.645Z,4
2023-05-04T00:21:03.644Z,4.1
2023-05-04T00:22:05.732Z,4.1
2023-05-04T00:23:09.655Z,4.1
2023-05-04T00:24:29.451Z,4
2023-05-04T00:25:29.493Z,4
2023-05-04T00:26:29.486Z,4
2023-05-04T00:27:29.466Z,4
2023-05-04T00:28:29.474Z,3.9
2023-05-04T00:29:29.467Z,3.9
2023-05-04T00:30:29.525Z,3.9
2023-05-04T00:31:29.482Z,3.9
2023-05-04T00:32:29.527Z,3.9
2023-05-04T00:33:29.770Z,3.8
2023-05-04T00:34:33.667Z,3.8
2023-05-04T00:35:35.722Z,3.8
2023-05-04T00:36:37.674Z,3.8
2023-05-04T00:37:39.781Z,3.8
2023-05-04T00:38:41.718Z,3.8
2023-05-04T00:39:43.681Z,3.8
2023-05-04T00:40:45.659Z,3.8
2023-05-04T00:41:47.757Z,3.8
2023-05-04T00:42:49.665Z,3.8
2023-05-04T00:43:51.740Z,3.8
2023-05-04T00:44:53.700Z,3.7
2023-05-04T00:45:55.682Z,3.7
2023-05-04T00:46:57.727Z,3.7
2023-05-04T00:47:59.797Z,3.7
2023-05-04T00:49:01.689Z,3.7
2023-05-04T00:50:03.788Z,3.7
2023-05-04T00:51:05.735Z,3.7
2023-05-04T00:52:08.681Z,3.6
2023-05-04T00:53:10.788Z,3.6
2023-05-04T00:54:12.665Z,3.6
2023-05-04T00:55:14.664Z,3.6
2023-05-04T00:56:16.731Z,3.6
2023-05-04T00:57:18.675Z,3.6
2023-05-04T00:58:20.725Z,3.6
2023-05-04T00:59:22.674Z,3.6
2023-05-04T01:00:24.733Z,3.6
2023-05-04T01:01:26.685Z,3.6
2023-05-04T01:02:29.889Z,3.5
2023-05-04T01:03:31.757Z,3.5
2023-05-04T01:04:33.693Z,3.5
2023-05-04T01:05:35.686Z,3.5
2023-05-04T01:06:37.658Z,3.5
2023-05-04T01:07:39.700Z,3.4
2023-05-04T01:08:41.745Z,3.4
2023-05-04T01:09:43.696Z,3.4
2023-05-04T01:10:45.689Z,3.4
2023-05-04T01:11:47.744Z,3.4
2023-05-04T01:12:49.720Z,3.4
2023-05-04T01:13:51.697Z,3.4
2023-05-04T01:14:53.745Z,3.4
2023-05-04T01:15:56.683Z,3.4
2023-05-04T01:16:58.828Z,3.4
2023-05-04T01:18:00.750Z,3.4
2023-05-04T01:19:02.752Z,3.4
2023-05-04T01:20:06.012Z,3.4
2023-05-04T01:21:08.688Z,3.4
2023-05-04T01:22:10.690Z,3.4
2023-05-04T01:23:12.708Z,3.4
2023-05-04T01:24:14.780Z,3.4
2023-05-04T01:25:16.705Z,3.4
2023-05-04T01:26:18.702Z,3.4
2023-05-04T01:27:20.769Z,3.4
2023-05-04T01:28:22.707Z,3.4
2023-05-04T01:29:24.699Z,3.4
2023-05-04T01:30:26.706Z,3.4
2023-05-04T01:31:28.798Z,3.3
2023-05-04T01:32:30.801Z,3.2
2023-05-04T01:33:32.711Z,3.2
2023-05-04T01:34:34.716Z,3.2
2023-05-04T01:35:36.746Z,3.2
2023-05-04T01:36:38.703Z,3.1
2023-05-04T01:37:40.753Z,3.1
2023-05-04T01:38:56.358Z,3.1
2023-05-04T01:39:45.705Z,3.1
2023-05-04T01:40:47.718Z,3.1
2023-05-04T01:41:49.700Z,3.1
2023-05-04T01:42:51.775Z,3.1
2023-05-04T01:44:29.506Z,3.1
2023-05-04T01:45:29.516Z,3.1
2023-05-04T01:46:29.581Z,3.1
2023-05-04T01:47:29.567Z,3.1
2023-05-04T01:48:29.602Z,3.1
2023-05-04T01:49:29.531Z,3.1
2023-05-04T01:50:29.518Z,3.1
2023-05-04T01:51:29.522Z,3.1
2023-05-04T01:52:29.519Z,3.1
2023-05-04T01:53:29.557Z,3.1
2023-05-04T01:54:29.848Z,3.1
2023-05-04T01:55:29.523Z,3.1
2023-05-04T01:56:30.095Z,3.1
2023-05-04T01:57:29.547Z,3.1
2023-05-04T01:58:29.578Z,3.1
2023-05-04T01:59:29.530Z,3.1
2023-05-04T02:00:29.535Z,3.1
2023-05-04T02:01:29.605Z,3.1
2023-05-04T02:02:29.850Z,3.1
2023-05-04T02:03:31.938Z,3.1
2023-05-04T02:04:33.721Z,3
2023-05-04T02:05:35.736Z,3
2023-05-04T02:06:38.726Z,3
2023-05-04T02:07:40.705Z,3
2023-05-04T02:08:42.763Z,2.9
2023-05-04T02:09:44.725Z,2.9
2023-05-04T02:11:29.531Z,2.8
2023-05-04T02:12:29.575Z,2.8
2023-05-04T02:13:29.587Z,2.7
2023-05-04T02:14:29.534Z,2.7
2023-05-04T02:15:29.537Z,2.7
2023-05-04T02:16:29.590Z,2.7
2023-05-04T02:17:29.571Z,2.7
2023-05-04T02:18:29.593Z,2.7
2023-05-04T02:19:29.539Z,2.7
2023-05-04T02:20:29.542Z,2.7
2023-05-04T02:21:29.552Z,2.7
2023-05-04T02:22:29.550Z,2.7
2023-05-04T02:23:29.820Z,2.7
2023-05-04T02:24:29.557Z,2.7
2023-05-04T02:25:29.547Z,2.7
2023-05-04T02:26:29.553Z,2.8
2023-05-04T02:27:29.538Z,2.8
2023-05-04T02:28:29.605Z,2.8
2023-05-04T02:29:29.556Z,2.8
2023-05-04T02:30:29.548Z,2.7
2023-05-04T02:31:29.901Z,2.7
2023-05-04T02:32:31.767Z,2.7
2023-05-04T02:33:33.802Z,2.7
2023-05-04T02:34:35.750Z,2.7
2023-05-04T02:35:37.739Z,2.7
2023-05-04T02:36:39.735Z,2.7
2023-05-04T02:37:42.734Z,2.6
2023-05-04T02:38:44.853Z,2.6
2023-05-04T02:39:46.745Z,2.6
2023-05-04T02:40:48.747Z,2.6
2023-05-04T02:41:50.743Z,2.6
2023-05-04T02:42:52.739Z,2.6
2023-05-04T02:43:54.812Z,2.6
2023-05-04T02:44:56.744Z,2.6
2023-05-04T02:45:58.815Z,2.6
2023-05-04T02:47:00.772Z,2.6
2023-05-04T02:48:03.825Z,2.6
2023-05-04T02:49:05.811Z,2.6
2023-05-04T02:50:09.761Z,2.6
2023-05-04T02:51:11.745Z,2.6
2023-05-04T02:52:13.749Z,2.6
2023-05-04T02:53:15.754Z,2.5
2023-05-04T02:54:17.877Z,2.5
2023-05-04T02:55:19.750Z,2.5
2023-05-04T02:56:21.772Z,2.5
2023-05-04T02:57:23.769Z,2.5
2023-05-04T02:58:25.770Z,2.5
2023-05-04T02:59:27.814Z,2.5
2023-05-04T03:00:29.872Z,2.5
2023-05-04T03:01:34.643Z,2.5
2023-05-04T03:02:33.793Z,2.5
2023-05-04T03:03:35.775Z,2.5
2023-05-04T03:04:37.960Z,2.5
2023-05-04T03:05:39.774Z,2.5
2023-05-04T03:06:41.773Z,2.5
2023-05-04T03:07:43.768Z,2.5
2023-05-04T03:08:45.783Z,2.5
2023-05-04T03:09:48.186Z,2.5
2023-05-04T03:10:49.762Z,2.5
2023-05-04T03:11:51.801Z,2.5
2023-05-04T03:12:53.839Z,2.5
2023-05-04T03:13:55.784Z,2.5
2023-05-04T03:14:57.840Z,2.5
2023-05-04T03:15:59.839Z,2.5
2023-05-04T03:17:01.773Z,2.5
2023-05-04T03:18:03.826Z,2.5
2023-05-04T03:19:05.786Z,2.5
2023-05-04T03:20:08.108Z,2.5
2023-05-04T03:21:09.775Z,2.5
2023-05-04T03:22:11.778Z,2.6
2023-05-04T03:23:13.773Z,2.5
2023-05-04T03:24:15.773Z,2.5
2023-05-04T03:25:17.897Z,2.5
2023-05-04T03:26:19.788Z,2.5
2023-05-04T03:27:21.782Z,2.5
2023-05-04T03:28:23.787Z,2.5
2023-05-04T03:29:25.791Z,2.5
2023-05-04T03:30:27.826Z,2.5
2023-05-04T03:31:29.923Z,2.4
2023-05-04T03:32:31.805Z,2.4
2023-05-04T03:33:33.797Z,2.4
2023-05-04T03:34:35.774Z,2.4
2023-05-04T03:35:37.872Z,2.3
2023-05-04T03:36:39.779Z,2.3
2023-05-04T03:37:41.791Z,2.2
2023-05-04T03:38:43.807Z,2.2
2023-05-04T03:40:47.906Z,2.1
2023-05-04T03:41:49.806Z,2.1
2023-05-04T03:42:51.802Z,2.1
2023-05-04T03:43:53.787Z,2.1
2023-05-04T03:44:55.802Z,2.1
2023-05-04T03:45:57.933Z,2.1
2023-05-04T03:46:59.817Z,2
2023-05-04T03:48:01.815Z,2.1
2023-05-04T03:49:03.792Z,2.1
2023-05-04T03:50:06.080Z,2.1
2023-05-04T03:51:09.859Z,2.1
2023-05-04T03:52:11.811Z,2.1
2023-05-04T03:53:13.814Z,2.1
2023-05-04T03:54:15.831Z,2.1
2023-05-04T03:55:17.802Z,2.1
2023-05-04T03:56:19.919Z,2
2023-05-04T03:57:21.800Z,2
2023-05-04T03:58:23.805Z,2
2023-05-04T03:59:25.804Z,2
2023-05-04T04:00:27.801Z,2
2023-05-04T04:01:29.980Z,2
2023-05-04T04:02:31.873Z,2
2023-05-04T04:03:33.892Z,2
2023-05-04T04:04:36.904Z,2
2023-05-04T04:05:38.800Z,2
2023-05-04T04:06:43.162Z,2
2023-05-04T04:07:42.804Z,2
2023-05-04T04:08:44.807Z,2
2023-05-04T04:09:46.814Z,2
2023-05-04T04:10:48.819Z,2
2023-05-04T04:11:50.937Z,2.1
2023-05-04T04:12:52.853Z,2.1
2023-05-04T04:13:54.814Z,2.1
2023-05-04T04:14:56.811Z,2.1
2023-05-04T04:15:58.813Z,2.1
2023-05-04T04:17:00.875Z,2.2
2023-05-04T04:18:02.857Z,2.2
2023-05-04T04:19:05.826Z,2.2
2023-05-04T04:20:08.815Z,2.2
2023-05-04T04:21:10.817Z,2.2
2023-05-04T04:22:12.882Z,2.2
2023-05-04T04:23:14.814Z,2.2
2023-05-04T04:24:16.833Z,2.2
2023-05-04T04:25:18.825Z,2.2
2023-05-04T04:26:20.850Z,2.2
2023-05-04T04:27:22.922Z,2.2
2023-05-04T04:28:24.812Z,2.2
2023-05-04T04:29:27.032Z,2.3
2023-05-04T04:30:28.824Z,2.3
2023-05-04T04:31:30.899Z,2.3
2023-05-04T04:32:32.848Z,2.3
2023-05-04T04:33:34.826Z,2.3
2023-05-04T04:34:36.833Z,2.3
2023-05-04T04:35:38.809Z,2.4
2023-05-04T04:36:40.821Z,2.4
2023-05-04T04:37:43.821Z,2.4
2023-05-04T04:38:45.821Z,2.5
2023-05-04T04:39:47.823Z,2.5
2023-05-04T04:40:49.825Z,2.5
2023-05-04T04:41:51.823Z,2.6
2023-05-04T04:42:53.881Z,2.6
2023-05-04T04:43:55.830Z,2.6
2023-05-04T04:44:57.833Z,2.6
2023-05-04T04:45:59.829Z,2.6
2023-05-04T04:47:01.982Z,2.6
2023-05-04T04:48:03.872Z,2.6
2023-05-04T04:49:05.853Z,2.6
2023-05-04T04:50:08.038Z,2.6
2023-05-04T04:51:09.852Z,2.7
2023-05-04T04:52:12.353Z,2.7
2023-05-04T04:53:13.832Z,2.7
2023-05-04T04:54:15.832Z,2.7
2023-05-04T04:55:17.885Z,2.8
2023-05-04T04:56:19.871Z,2.8
2023-05-04T04:57:21.947Z,2.8
2023-05-04T04:58:23.854Z,2.8
2023-05-04T04:59:25.840Z,2.9
2023-05-04T05:00:27.862Z,2.9
2023-05-04T05:01:40.791Z,3
2023-05-04T05:02:31.849Z,3
2023-05-04T05:03:34.845Z,3
2023-05-04T05:05:39.909Z,3.1
2023-05-04T05:06:41.870Z,3.1
2023-05-04T05:07:43.856Z,3.1
2023-05-04T05:08:45.930Z,3.2
2023-05-04T05:09:47.861Z,3.2
2023-05-04T05:10:49.922Z,3.2
2023-05-04T05:11:51.855Z,3.2
2023-05-04T05:12:53.989Z,3.2
2023-05-04T05:13:55.855Z,3.2
2023-05-04T05:14:57.865Z,3.2
2023-05-04T05:16:00.933Z,3.2
2023-05-04T05:17:02.996Z,3.3
2023-05-04T05:18:05.892Z,3.3
2023-05-04T05:19:08.899Z,3.3
2023-05-04T05:20:10.924Z,3.3
2023-05-04T05:21:12.908Z,3.4
2023-05-04T05:22:14.861Z,3.4
2023-05-04T05:23:16.860Z,3.4
2023-05-04T05:24:18.921Z,3.4
2023-05-04T05:25:20.869Z,3.4
2023-05-04T05:26:22.920Z,3.4
2023-05-04T05:27:24.856Z,3.5
2023-05-04T05:28:26.914Z,3.5
2023-05-04T05:29:28.859Z,3.5
2023-05-04T05:30:30.875Z,3.5
2023-05-04T05:31:32.980Z,3.5
2023-05-04T05:32:34.911Z,3.5
2023-05-04T05:33:37.075Z,3.5
2023-05-04T05:34:38.863Z,3.6
2023-05-04T05:36:42.921Z,3.5
2023-05-04T05:37:44.865Z,3.5
2023-05-04T05:38:49.669Z,3.6
2023-05-04T05:39:49.874Z,3.6
2023-05-04T05:40:51.889Z,3.6
2023-05-04T05:41:53.892Z,3.6
2023-05-04T05:42:55.873Z,3.7
2023-05-04T05:43:57.930Z,3.7
2023-05-04T05:44:59.871Z,3.7
2023-05-04T05:46:01.891Z,3.7
2023-05-04T05:47:03.891Z,3.7
2023-05-04T05:48:05.930Z,3.8
2023-05-04T05:49:07.907Z,3.8
2023-05-04T05:50:09.891Z,3.9
2023-05-04T05:51:11.920Z,3.9
2023-05-04T05:52:13.922Z,3.9
2023-05-04T05:53:15.885Z,4
2023-05-04T05:54:17.883Z,4
2023-05-04T05:55:19.879Z,4
2023-05-04T05:56:21.891Z,4.1
2023-05-04T05:57:23.923Z,4.2
2023-05-04T05:58:25.874Z,4.2
2023-05-04T05:59:27.887Z,4.2
2023-05-04T06:00:30.020Z,4.3
2023-05-04T06:01:31.903Z,4.4
2023-05-04T06:02:34.025Z,4.4
2023-05-04T06:03:36.057Z,4.5
2023-05-04T06:04:37.897Z,4.5
2023-05-04T06:05:39.880Z,4.6
2023-05-04T06:06:44.280Z,4.6
2023-05-04T06:07:43.906Z,4.7
2023-05-04T06:08:46.876Z,4.8
2023-05-04T06:09:48.886Z,4.8
2023-05-04T06:10:50.895Z,4.9
2023-05-04T06:11:55.330Z,5
2023-05-04T06:12:54.977Z,5
2023-05-04T06:13:56.894Z,5.1
2023-05-04T06:14:58.916Z,5.2
2023-05-04T06:16:00.922Z,5.2
2023-05-04T06:17:02.902Z,5.3
2023-05-04T06:18:06.005Z,5.4
2023-05-04T06:19:08.902Z,5.4
2023-05-04T06:20:10.899Z,5.6
2023-05-04T06:21:12.931Z,5.6
2023-05-04T06:22:14.910Z,5.7
2023-05-04T06:23:16.934Z,5.8
2023-05-04T06:24:18.894Z,5.9
2023-05-04T06:25:20.919Z,6
2023-05-04T06:26:22.910Z,6.1
2023-05-04T06:27:24.900Z,6.2
2023-05-04T06:28:26.922Z,6.2
2023-05-04T06:29:28.902Z,6.3
2023-05-04T06:30:30.917Z,6.5
2023-05-04T06:31:32.927Z,6.6
2023-05-04T06:32:34.929Z,6.7
2023-05-04T06:33:36.949Z,6.7
2023-05-04T06:34:44.596Z,6.8
2023-05-04T06:36:42.908Z,7
2023-05-04T06:37:44.906Z,7.1
2023-05-04T06:38:46.959Z,7.2
2023-05-04T06:39:48.957Z,7.2
2023-05-04T06:40:51.912Z,7.3
2023-05-04T06:41:53.946Z,7.4
2023-05-04T06:42:55.912Z,7.5
2023-05-04T06:43:58.901Z,7.6
2023-05-04T06:44:59.936Z,7.7
2023-05-04T06:46:01.983Z,7.8
2023-05-04T06:47:03.926Z,7.9
2023-05-04T06:48:05.939Z,8
2023-05-04T06:49:09.957Z,8
2023-05-04T06:50:11.919Z,8.1
2023-05-04T06:51:13.937Z,8.2
2023-05-04T06:52:15.938Z,8.3
2023-05-04T06:53:17.928Z,8.4
2023-05-04T06:54:19.963Z,8.4
2023-05-04T06:55:21.939Z,8.5
2023-05-04T06:56:23.926Z,8.6
2023-05-04T06:57:25.897Z,8.7
2023-05-04T06:58:27.916Z,8.8
2023-05-04T06:59:30.230Z,9
2023-05-04T07:00:32.904Z,9.1
2023-05-04T07:01:34.967Z,9.2
2023-05-04T07:02:36.985Z,9.2
2023-05-04T07:03:39.108Z,9.3
2023-05-04T07:04:40.943Z,9.4
2023-05-04T07:05:42.938Z,9.5
2023-05-04T07:06:44.910Z,9.7
2023-05-04T07:07:47.013Z,9.7
2023-05-04T07:08:48.920Z,9.9
2023-05-04T07:09:51.935Z,10
2023-05-04T07:10:53.924Z,10.1
2023-05-04T07:11:56.006Z,10.2
2023-05-04T07:12:57.947Z,10.3
2023-05-04T07:13:59.925Z,10.4
2023-05-04T07:15:01.948Z,10.5
2023-05-04T07:16:03.934Z,10.5
2023-05-04T07:17:05.947Z,10.6
2023-05-04T07:19:10.949Z,10.8
2023-05-04T07:20:12.945Z,10.9
2023-05-04T07:22:16.948Z,11
2023-05-04T07:23:18.951Z,11.1
2023-05-04T07:24:20.950Z,11.1
2023-05-04T07:25:22.953Z,11.1
2023-05-04T07:26:24.959Z,11.2
2023-05-04T07:27:26.928Z,11.3
2023-05-04T07:28:28.954Z,11.4
2023-05-04T07:29:30.946Z,11.6
2023-05-04T07:30:32.941Z,11.6
2023-05-04T07:31:34.995Z,11.8
2023-05-04T07:32:36.998Z,11.9
2023-05-04T07:34:45.605Z,12.1
2023-05-04T07:35:42.958Z,12.2
2023-05-04T07:37:46.968Z,12.3
2023-05-04T07:38:48.951Z,12.4
2023-05-04T07:39:50.940Z,12.5
2023-05-04T07:40:52.963Z,12.5
2023-05-04T07:41:54.969Z,12.6
2023-05-04T07:42:56.953Z,12.6
2023-05-04T07:43:58.968Z,12.7
2023-05-04T07:45:00.971Z,12.7
2023-05-04T07:46:02.983Z,12.8
2023-05-04T07:47:05.981Z,12.8
2023-05-04T07:48:09.019Z,12.9
2023-05-04T07:49:10.954Z,13
2023-05-04T07:50:29.812Z,13.1
2023-05-04T07:51:29.809Z,13.2
2023-05-04T07:52:29.780Z,13.3
2023-05-04T07:53:29.760Z,13.3
2023-05-04T07:54:29.775Z,13.3
2023-05-04T07:55:29.779Z,13.4
2023-05-04T07:56:29.829Z,13.4
2023-05-04T07:57:29.753Z,13.4
2023-05-04T07:58:30.320Z,13.5
2023-05-04T07:59:32.988Z,13.5
2023-05-04T08:00:34.984Z,13.6
2023-05-04T08:01:36.991Z,13.7
2023-05-04T08:02:39.076Z,13.8
2023-05-04T08:03:41.114Z,13.9
2023-05-04T08:04:42.957Z,13.9
2023-05-04T08:05:45.983Z,13.9
2023-05-04T08:06:47.978Z,13.9
2023-05-04T08:07:49.969Z,14
2023-05-04T08:08:52.977Z,14
2023-05-04T08:09:53.961Z,14
2023-05-04T08:11:01.996Z,14.1
2023-05-04T08:11:58.240Z,14.1
2023-05-04T08:13:00.185Z,14
2023-05-04T08:14:01.980Z,14
2023-05-04T08:15:04.221Z,14.1
2023-05-04T08:16:06.013Z,14.1
2023-05-04T08:17:09.981Z,14
2023-05-04T08:18:12.005Z,14
2023-05-04T08:19:14.003Z,14
2023-05-04T08:20:15.979Z,14
2023-05-04T08:21:18.024Z,14
2023-05-04T08:22:19.983Z,14.1
2023-05-04T08:23:21.985Z,14.2
2023-05-04T08:24:23.989Z,14.3
2023-05-04T08:25:25.984Z,14.4
2023-05-04T08:26:28.022Z,14.4
2023-05-04T08:27:30.121Z,14.4
2023-05-04T08:28:32.060Z,14.5
2023-05-04T08:30:29.793Z,14.6
2023-05-04T08:31:29.875Z,14.7
2023-05-04T08:32:31.100Z,14.7
2023-05-04T08:33:29.815Z,14.7
2023-05-04T08:34:41.071Z,14.7
2023-05-04T08:35:29.803Z,14.7
2023-05-04T08:36:29.819Z,14.7
2023-05-04T08:37:29.814Z,14.8
2023-05-04T08:38:29.839Z,14.8
2023-05-04T08:39:29.797Z,14.8
2023-05-04T08:40:29.809Z,14.8
2023-05-04T08:41:29.894Z,14.8
2023-05-04T08:42:29.814Z,14.9
2023-05-04T08:43:29.814Z,15
2023-05-04T08:44:29.814Z,15
2023-05-04T08:45:29.825Z,15.1
2023-05-04T08:46:29.825Z,15.1
2023-05-04T08:47:29.883Z,15.1
2023-05-04T08:48:29.833Z,15.1
2023-05-04T08:49:29.802Z,15.2
2023-05-04T08:50:29.819Z,15.2
2023-05-04T08:51:29.875Z,15.2
2023-05-04T08:52:29.822Z,15.2
2023-05-04T08:53:29.824Z,15.3
2023-05-04T08:54:29.830Z,15.3
2023-05-04T08:55:29.821Z,15.3
2023-05-04T08:56:30.162Z,15.3
2023-05-04T08:57:32.028Z,15.3
2023-05-04T08:58:34.025Z,15.4
2023-05-04T08:59:36.022Z,15.4
2023-05-04T09:00:38.044Z,15.4
2023-05-04T09:01:40.133Z,15.4
2023-05-04T09:02:42.206Z,15.4
2023-05-04T09:03:44.369Z,15.4
2023-05-04T09:04:46.019Z,15.5
2023-05-04T09:05:48.021Z,15.5
2023-05-04T09:06:50.041Z,15.6
2023-05-04T09:07:52.016Z,15.6
2023-05-04T09:08:54.045Z,15.6
2023-05-04T09:09:56.018Z,15.7
2023-05-04T09:10:58.030Z,15.7
2023-05-04T09:12:00.078Z,15.7
2023-05-04T09:13:02.107Z,15.8
2023-05-04T09:14:04.032Z,15.8
2023-05-04T09:15:20.671Z,15.8
2023-05-04T09:16:10.400Z,15.8
2023-05-04T09:17:12.298Z,15.8
2023-05-04T09:18:14.087Z,15.8
2023-05-04T09:19:16.026Z,15.8
2023-05-04T09:20:18.036Z,15.8
2023-05-04T09:21:20.091Z,15.9
2023-05-04T09:22:23.085Z,15.9
2023-05-04T09:23:25.034Z,15.9
2023-05-04T09:24:27.034Z,15.9
2023-05-04T09:25:29.061Z,16
2023-05-04T09:26:31.050Z,16.1
2023-05-04T09:27:33.079Z,16.1
2023-05-04T09:28:35.035Z,16.2
2023-05-04T09:29:37.037Z,16.2
2023-05-04T09:30:39.088Z,16.3
2023-05-04T09:31:41.260Z,16.3
2023-05-04T09:32:43.132Z,16.4
2023-05-04T09:33:45.165Z,16.5
2023-05-04T09:34:47.064Z,16.4
2023-05-04T09:35:50.044Z,16.4
2023-05-04T09:36:52.049Z,16.5
2023-05-04T09:37:54.085Z,16.6
2023-05-04T09:38:56.061Z,16.7
2023-05-04T09:39:58.059Z,16.8
2023-05-04T09:41:02.057Z,16.9
2023-05-04T09:42:04.068Z,16.9
2023-05-04T09:43:06.105Z,17
2023-05-04T09:44:10.056Z,16.9
2023-05-04T09:45:12.051Z,17
2023-05-04T09:46:14.068Z,17
2023-05-04T09:47:16.057Z,17
2023-05-04T09:48:18.108Z,17
2023-05-04T09:49:21.080Z,17.1
2023-05-04T09:50:23.101Z,17.1
2023-05-04T09:51:25.089Z,17.1
2023-05-04T09:52:27.064Z,17
2023-05-04T09:53:29.089Z,17
2023-05-04T09:54:31.071Z,17
2023-05-04T09:55:33.064Z,17.1
2023-05-04T09:56:35.061Z,17.1
2023-05-04T09:57:37.073Z,17.1
2023-05-04T09:58:39.107Z,17.2
2023-05-04T09:59:41.068Z,17.2
2023-05-04T10:00:43.046Z,17.2
2023-05-04T10:01:45.135Z,17.3
2023-05-04T10:02:47.134Z,17.4
2023-05-04T10:03:49.073Z,17.4
2023-05-04T10:04:51.066Z,17.4
2023-05-04T10:05:53.162Z,17.4
2023-05-04T10:06:55.088Z,17.5
2023-05-04T10:07:57.072Z,17.6
2023-05-04T10:08:59.087Z,17.6
2023-05-04T10:10:01.079Z,17.6
2023-05-04T10:11:03.077Z,17.6
2023-05-04T10:12:07.118Z,17.7
2023-05-04T10:13:09.208Z,17.7
2023-05-04T10:14:11.096Z,17.7
2023-05-04T10:15:13.062Z,17.7
2023-05-04T10:16:15.088Z,17.8
2023-05-04T10:17:17.066Z,17.9
2023-05-04T10:18:21.083Z,17.9
2023-05-04T10:19:23.099Z,17.9
2023-05-04T10:20:25.081Z,17.9
2023-05-04T10:21:27.118Z,17.9
2023-05-04T10:22:29.076Z,17.9
2023-05-04T10:23:31.093Z,18.1
2023-05-04T10:24:33.100Z,18.1
2023-05-04T10:25:37.094Z,18.2
2023-05-04T10:26:41.093Z,18.2
2023-05-04T10:27:45.097Z,18.2
2023-05-04T10:28:49.085Z,18.3
2023-05-04T10:29:51.368Z,18.3
2023-05-04T10:30:53.099Z,18.3
2023-05-04T10:31:55.133Z,18.4
2023-05-04T10:32:58.231Z,18.3
2023-05-04T10:34:00.097Z,18.3
2023-05-04T10:35:02.196Z,18.3
2023-05-04T10:36:06.109Z,18.3
2023-05-04T10:37:09.095Z,18.3
2023-05-04T10:38:11.183Z,18.3
2023-05-04T10:39:13.101Z,18.3
2023-05-04T10:40:15.096Z,18.4
2023-05-04T10:41:17.142Z,18.4
2023-05-04T10:42:21.102Z,18.5
2023-05-04T10:43:25.103Z,18.5
2023-05-04T10:44:29.122Z,18.5
2023-05-04T10:45:31.142Z,18.5
2023-05-04T10:46:35.092Z,18.6
2023-05-04T10:47:39.170Z,18.6
2023-05-04T10:48:42.092Z,18.6
2023-05-04T10:49:46.085Z,18.7
2023-05-04T10:50:48.126Z,18.7
2023-05-04T10:51:52.130Z,18.7
2023-05-04T10:52:57.575Z,18.7
2023-05-04T10:53:58.116Z,18.7
2023-05-04T10:55:00.150Z,18.7
2023-05-04T10:56:02.101Z,18.7
2023-05-04T10:57:04.109Z,18.7
2023-05-04T10:58:09.105Z,18.7
2023-05-04T10:59:13.101Z,18.7
2023-05-04T11:00:17.570Z,18.7
2023-05-04T11:01:21.686Z,18.8
2023-05-04T11:02:25.755Z,18.8
2023-05-04T11:03:29.710Z,18.9
2023-05-04T11:04:33.617Z,19
2023-05-04T11:05:37.575Z,19
2023-05-04T11:06:41.580Z,19
2023-05-04T11:07:45.583Z,19
2023-05-04T11:08:47.584Z,19
2023-05-04T11:09:51.611Z,19
2023-05-04T11:10:53.620Z,19
2023-05-04T11:11:57.567Z,19
2023-05-04T11:12:59.698Z,19
2023-05-04T11:14:03.571Z,19
2023-05-04T11:15:07.859Z,19
2023-05-04T11:16:09.601Z,19.1
2023-05-04T11:18:19.048Z,19.2
2023-05-04T11:19:21.584Z,19.3
2023-05-04T11:20:25.583Z,19.3
2023-05-04T11:21:29.581Z,19.2
2023-05-04T11:22:33.588Z,19.3
2023-05-04T11:23:44.907Z,19.4
2023-05-04T11:24:56.780Z,19.4
2023-05-04T11:25:45.582Z,19.4
2023-05-04T11:26:48.079Z,19.4
2023-05-04T11:27:51.631Z,19.4
2023-05-04T11:28:53.641Z,19.3
2023-05-04T11:31:02.612Z,19.3
2023-05-04T11:32:04.600Z,19.3
2023-05-04T11:34:10.629Z,19.3
2023-05-04T11:35:14.630Z,19.3
2023-05-04T11:36:16.601Z,19.3
2023-05-04T11:37:21.598Z,19.4
2023-05-04T11:38:23.600Z,19.4
2023-05-04T11:39:25.609Z,19.4
2023-05-04T11:40:27.606Z,19.4
2023-05-04T11:41:31.612Z,19.5
2023-05-04T11:42:33.601Z,19.5
2023-05-04T11:43:37.620Z,19.4
2023-05-04T11:44:41.578Z,19.4
2023-05-04T11:45:45.592Z,19.5
2023-05-04T11:46:49.669Z,19.5
2023-05-04T11:47:53.685Z,19.5
2023-05-04T11:48:57.617Z,19.5
2023-05-04T11:50:01.639Z,19.5
2023-05-04T11:51:06.629Z,19.6
2023-05-04T11:52:09.647Z,19.5
2023-05-04T11:53:13.657Z,19.5
2023-05-04T11:54:17.631Z,19.5
2023-05-04T11:55:21.617Z,19.5
2023-05-04T11:56:25.622Z,19.6
2023-05-04T11:57:27.626Z,19.6
2023-05-04T11:58:31.598Z,19.6
2023-05-04T11:59:33.607Z,19.6
2023-05-04T12:01:39.641Z,19.6
2023-05-04T12:02:43.682Z,19.6
2023-05-04T12:03:53.608Z,19.6
2023-05-04T12:04:51.636Z,19.7
2023-05-04T12:05:55.684Z,19.7
2023-05-04T12:08:29.967Z,19.7
2023-05-04T12:09:29.985Z,19.7
2023-05-04T12:10:29.968Z,19.7
2023-05-04T12:11:29.976Z,19.7
2023-05-04T12:12:32.264Z,19.7
2023-05-04T12:13:29.970Z,19.6
2023-05-04T12:14:30.026Z,19.6
2023-05-04T12:16:31.898Z,19.6
2023-05-04T12:17:33.872Z,19.6
2023-05-04T12:18:37.851Z,19.6
2023-05-04T12:19:41.858Z,19.6
2023-05-04T12:20:45.877Z,19.6
2023-05-04T12:21:49.868Z,19.6
2023-05-04T12:22:53.863Z,19.5
2023-05-04T12:23:57.867Z,19.5
2023-05-04T12:24:59.872Z,19.5
2023-05-04T12:26:03.852Z,19.4
2023-05-04T12:27:07.866Z,19.4
2023-05-04T12:28:09.908Z,19.4
2023-05-04T12:29:11.860Z,19.3
2023-05-04T12:30:13.868Z,19.2
2023-05-04T12:31:15.895Z,19.1
2023-05-04T12:32:30.052Z,19.1
2023-05-04T12:33:29.991Z,19.1
2023-05-04T12:34:30.055Z,19.1
2023-05-04T12:35:30.869Z,19.1
2023-05-04T12:36:34.871Z,19.1
2023-05-04T12:37:39.482Z,19.2
2023-05-04T12:42:30.926Z,19.3
2023-05-04T12:42:56.068Z,19.2
2023-05-04T12:45:05.246Z,19.2
2023-05-04T12:46:09.160Z,19.2
2023-05-04T12:47:14.029Z,19.2
2023-05-04T12:49:20.022Z,19.2
2023-05-04T12:50:22.043Z,19.2
2023-05-04T12:51:26.088Z,19.1
2023-05-04T12:52:31.283Z,19.1
2023-05-04T12:53:34.105Z,19.1
2023-05-04T12:54:36.048Z,19.1
2023-05-04T12:56:45.048Z,19.1
2023-05-04T12:57:49.079Z,19.2
2023-05-04T12:58:53.181Z,19.3
2023-05-04T12:59:57.040Z,19.4
2023-05-04T13:01:02.119Z,19.5
2023-05-04T13:02:06.082Z,19.5
2023-05-04T13:03:10.147Z,19.5
2023-05-04T13:04:15.071Z,19.6
2023-05-04T13:05:19.102Z,19.5
2023-05-04T13:06:23.060Z,19.6
2023-05-04T13:07:27.077Z,19.6
2023-05-04T13:08:31.298Z,19.7
2023-05-04T13:09:34.090Z,19.7
2023-05-04T13:10:38.043Z,19.8
2023-05-04T13:13:30.997Z,19.6
2023-05-04T13:14:31.260Z,19.6
2023-05-04T13:15:30.982Z,19.6
2023-05-04T13:16:31.021Z,19.7
2023-05-04T13:17:31.003Z,19.7
2023-05-04T13:18:30.985Z,19.6
2023-05-04T13:19:31.058Z,19.7
2023-05-04T13:20:30.982Z,19.7
2023-05-04T13:21:30.967Z,19.7
2023-05-04T13:22:30.976Z,19.7
2023-05-04T13:23:31.034Z,19.6
2023-05-04T13:24:31.011Z,19.6
2023-05-04T13:25:31.298Z,19.6
2023-05-04T13:26:33.067Z,19.6
2023-05-04T13:27:37.067Z,19.6
2023-05-04T13:28:41.095Z,19.6
2023-05-04T13:29:46.072Z,19.6
2023-05-04T13:31:31.092Z,19.7
2023-05-04T13:32:31.028Z,19.7
2023-05-04T13:33:31.126Z,19.7
2023-05-04T13:34:31.054Z,19.7
2023-05-04T13:35:30.995Z,19.8
2023-05-04T13:36:30.992Z,19.8
2023-05-04T13:37:30.993Z,19.7
2023-05-04T13:38:30.976Z,19.8
2023-05-04T13:39:31.035Z,19.7
2023-05-04T13:40:30.973Z,19.7
2023-05-04T13:41:30.988Z,19.7
2023-05-04T13:42:31.360Z,19.6
2023-05-04T13:43:34.150Z,19.6
2023-05-04T13:44:38.086Z,19.6
2023-05-04T13:45:43.081Z,19.7
2023-05-04T13:46:47.161Z,19.7
2023-05-04T13:47:51.103Z,19.8
2023-05-04T13:48:55.711Z,19.7
2023-05-04T13:49:59.151Z,19.7
2023-05-04T13:51:03.085Z,19.6
2023-05-04T13:52:07.090Z,19.6
2023-05-04T13:53:11.230Z,19.5
2023-05-04T13:54:15.094Z,19.5
2023-05-04T13:55:17.133Z,19.6
2023-05-04T13:56:21.111Z,19.6
2023-05-04T13:57:25.265Z,19.6
2023-05-04T13:58:27.117Z,19.6
2023-05-04T13:59:29.096Z,19.6
2023-05-04T14:00:31.588Z,19.5
2023-05-04T14:01:33.145Z,19.5
2023-05-04T14:02:37.191Z,19.5
2023-05-04T14:03:41.111Z,19.5
2023-05-04T14:05:31.019Z,19.5
2023-05-04T14:06:31.342Z,19.5
2023-05-04T14:07:31.030Z,19.5
2023-05-04T14:08:31.039Z,19.6
2023-05-04T14:09:31.048Z,19.6
2023-05-04T14:10:31.009Z,19.6
2023-05-04T14:11:31.030Z,19.6
2023-05-04T14:12:31.189Z,19.6
2023-05-04T14:13:31.007Z,19.6
2023-05-04T14:14:31.040Z,19.7
2023-05-04T14:15:31.029Z,19.6
2023-05-04T14:16:31.385Z,19.7
2023-05-04T14:17:36.138Z,19.7
2023-05-04T14:18:40.090Z,19.7
2023-05-04T14:19:44.125Z,19.6
2023-05-04T14:20:48.093Z,19.6
2023-05-04T14:21:52.089Z,19.5
2023-05-04T14:22:56.108Z,19.5
2023-05-04T14:24:00.106Z,19.4
2023-05-04T14:25:04.326Z,19.4
2023-05-04T14:26:08.104Z,19.3
2023-05-04T14:27:12.100Z,19.3
2023-05-04T14:28:16.166Z,19.3
2023-05-04T14:29:20.125Z,19.4
2023-05-04T14:30:24.102Z,19.4
2023-05-04T14:31:28.193Z,19.4
2023-05-04T14:32:31.386Z,19.4
2023-05-04T14:33:33.122Z,19.5